createdAt,value
2023-12-23T00:08:33.055Z,13.25
2023-12-23T00:18:39.450Z,8.32
2023-12-23T00:28:42.283Z,4.80
2023-12-23T00:38:46.452Z,9.52
2023-12-23T00:48:49.308Z,11.23
2023-12-23T00:58:53.507Z,6.63
2023-12-23T01:08:56.255Z,5.63
2023-12-23T01:19:00.440Z,16.23
2023-12-23T01:29:03.298Z,10.88
2023-12-23T01:39:07.422Z,15.18
2023-12-23T01:49:10.813Z,4.32
2023-12-23T01:59:15.469Z,4.30
2023-12-23T02:09:18.270Z,14.40
2023-12-23T02:19:22.399Z,11.23
2023-12-23T02:29:27.931Z,8.68
2023-12-23T02:39:30.666Z,11.13
2023-12-23T02:49:35.290Z,18.85
2023-12-23T02:59:38.090Z,13.75
2023-12-23T03:09:42.215Z,12.32
2023-12-23T03:19:45.131Z,7.30
2023-12-23T03:29:49.227Z,2.53
2023-12-23T03:39:51.979Z,3.65
2023-12-23T03:49:56.234Z,4.13
2023-12-23T03:59:59.050Z,6.35
2023-12-23T04:10:03.334Z,7.93
2023-12-23T04:20:07.088Z,15.00
2023-12-23T04:30:12.502Z,10.23
2023-12-23T04:40:16.907Z,4.80
2023-12-23T04:50:21.355Z,10.25
2023-12-23T05:00:24.217Z,7.35
2023-12-23T05:10:28.315Z,11.82
2023-12-23T05:20:31.035Z,11.30
2023-12-23T05:30:35.261Z,2.95
2023-12-23T05:40:38.578Z,10.85
2023-12-23T05:50:42.708Z,2.30
2023-12-23T06:00:46.107Z,6.90
2023-12-23T06:10:57.492Z,9.13
2023-12-23T06:21:01.333Z,6.75
2023-12-23T06:31:05.764Z,5.80
2023-12-23T06:41:08.530Z,2.78
2023-12-23T06:51:12.687Z,4.78
2023-12-23T07:01:15.569Z,4.68
2023-12-23T07:11:19.723Z,7.70
2023-12-23T07:21:22.492Z,3.78
2023-12-23T07:31:27.397Z,2.13
2023-12-23T07:41:30.206Z,2.13
2023-12-23T07:51:34.371Z,7.20
2023-12-23T08:01:44.954Z,7.78
2023-12-23T08:11:49.069Z,7.47
2023-12-23T08:21:51.816Z,2.08
2023-12-23T08:31:55.945Z,2.03
2023-12-23T08:41:58.676Z,2.92
2023-12-23T08:52:03.048Z,2.58
2023-12-23T09:02:06.167Z,1.77
2023-12-23T09:12:10.864Z,4.85
2023-12-23T09:22:13.617Z,1.75
2023-12-23T09:32:17.754Z,3.47
2023-12-23T09:42:23.310Z,3.90
2023-12-23T09:52:29.441Z,4.38
2023-12-23T10:02:32.224Z,3.15
2023-12-23T10:12:37.623Z,3.55
2023-12-23T10:22:40.396Z,3.08
2023-12-23T10:32:48.909Z,4.57
2023-12-23T10:42:53.095Z,7.38
2023-12-23T10:52:58.408Z,4.60
2023-12-23T11:03:03.463Z,4.05
2023-12-23T11:13:08.845Z,5.80
2023-12-23T11:23:36.085Z,8.98
2023-12-23T11:33:40.824Z,4.22
2023-12-23T11:43:45.039Z,4.50
2023-12-23T11:53:50.302Z,2.45
2023-12-23T12:03:53.102Z,3.08
2023-12-23T12:14:00.059Z,3.15
2023-12-23T12:24:03.083Z,5.47
2023-12-23T12:34:07.831Z,3.72
2023-12-23T12:44:10.769Z,3.15
2023-12-23T12:54:14.878Z,2.63
2023-12-23T13:04:17.717Z,2.53
2023-12-23T13:14:22.057Z,2.38
2023-12-23T13:24:25.233Z,4.82
2023-12-23T13:34:29.907Z,10.65
2023-12-23T13:44:36.292Z,3.83
2023-12-23T13:54:40.455Z,4.50
2023-12-23T14:04:43.220Z,4.63
2023-12-23T14:14:47.566Z,4.93
2023-12-23T14:24:50.302Z,4.43
2023-12-23T14:34:54.427Z,5.50
2023-12-23T14:44:59.119Z,4.75
2023-12-23T14:55:05.185Z,7.88
2023-12-23T15:05:08.703Z,10.90
2023-12-23T15:15:13.316Z,8.13
2023-12-23T15:25:18.040Z,8.07
2023-12-23T15:35:22.263Z,13.15
2023-12-23T15:45:25.135Z,13.63
2023-12-23T15:55:29.887Z,14.48
2023-12-23T16:05:32.995Z,15.45
2023-12-23T16:15:37.155Z,12.23
2023-12-23T16:25:40.542Z,20.48
2023-12-23T16:35:45.319Z,23.75
2023-12-23T16:45:48.080Z,29.40
2023-12-23T16:55:52.246Z,27.17
2023-12-23T17:05:55.280Z,23.15
2023-12-23T17:15:59.536Z,15.20
2023-12-23T17:26:02.477Z,9.02
2023-12-23T17:36:08.984Z,9.40
2023-12-23T17:46:12.327Z,12.80
2023-12-23T17:56:20.615Z,20.17
2023-12-23T18:06:23.558Z,17.27
2023-12-23T18:16:27.750Z,11.85
2023-12-23T18:26:30.577Z,8.90
2023-12-23T18:36:34.717Z,9.10
2023-12-23T18:46:37.503Z,12.07
2023-12-23T18:56:41.596Z,0.20
2023-12-23T19:06:44.381Z,0.30
2023-12-23T19:16:48.546Z,0.10
2023-12-23T19:26:52.224Z,0.10
2023-12-23T19:36:56.339Z,0.10
2023-12-23T19:46:59.155Z,0.10
2023-12-23T19:57:04.037Z,0.10
2023-12-23T20:07:06.865Z,0.10
2023-12-23T20:17:11.081Z,0.10
2023-12-23T20:27:13.839Z,0.10
2023-12-23T20:37:17.974Z,0.10
2023-12-23T20:47:20.821Z,0.10
2023-12-23T20:57:25.083Z,0.10
2023-12-23T21:07:27.892Z,0.73
2023-12-23T21:17:32.166Z,0.00
2023-12-23T21:27:34.942Z,0.10
2023-12-23T21:37:39.021Z,0.17
2023-12-23T21:47:46.043Z,0.10
2023-12-23T21:57:52.501Z,0.10
2023-12-23T22:07:55.244Z,0.10
2023-12-23T22:17:59.404Z,0.10
2023-12-23T22:28:02.238Z,0.03
2023-12-23T22:38:07.423Z,0.10
2023-12-23T22:48:10.469Z,0.10
2023-12-23T22:58:14.818Z,0.20
2023-12-23T23:08:17.674Z,0.10
2023-12-23T23:18:22.545Z,0.10
2023-12-23T23:28:25.404Z,0.10
2023-12-23T23:38:29.540Z,0.20
2023-12-23T23:48:32.263Z,0.20
2023-12-23T23:58:36.386Z,0.10
